Rorichmoor — V2BV7 — position and weather

sailwx.info

Track history (hours):
 
Tides and Currents Weather Stations Pressure Air Temp Water Temp Dewpoint Dewpoint Depression Visibility Wind Speed Wind Dir Waves Ship Positions

Rorichmoor

Last reported at 2015-May-19 17:33 UTC. Time now 2015-May-27 23:54 UTC.
Position N 43°20' E 004°58'.
Warning: this ship's position is 8 days out of date.

Length 80 m; draft 3 m.

Type: Cargo ship. MMSI: 304938000.

Date/timePositionNaut miles runAvg speedWind from/ knotsBaromVisibWave heightAir tempDewpointWater temp
2015-May-19 17:33N 43°20' E 004°58'5 0.2
2015-May-18 20:33N 43°24' E 004°54'469 9.2
2015-May-16 17:27N 38°34' E 013°02'8 8.9
2015-May-16 16:32N 38°28' E 013°09'9 9.1
2015-May-16 15:33N 38°21' E 013°18'9 9.0
2015-May-16 14:34N 38°15' E 013°25'9 9.0
2015-May-16 13:33N 38°08' E 013°33'9 9.2
2015-May-16 12:33N 38°02' E 013°42'3 0.1
2015-May-14 22:18N 37°59' E 013°43'0 0.0
2015-May-14 20:18N 37°59' E 013°43'0 0.0
2015-May-14 19:30N 37°59' E 013°43'0 0.0
2015-May-14 17:18N 37°59' E 013°43'0 0.0
2015-May-14 16:18N 37°59' E 013°43'0 0.0
2015-May-14 14:24N 37°59' E 013°43'0 0.0
2015-May-14 11:30N 37°59' E 013°43'0 0.0
2015-May-14 06:31N 37°59' E 013°43'2 2.5
2015-May-14 05:33N 38°02' E 013°42'6 4.5
2015-May-14 04:16N 38°06' E 013°37'4 5.3
2015-May-14 03:33N 38°08' E 013°33'7 6.6
2015-May-14 02:32N 38°13' E 013°27'8 8.6
2015-May-14 01:33N 38°19' E 013°20'10 9.8
2015-May-14 00:33N 38°26' E 013°11'12 9.5
2015-May-13 23:15N 38°35' E 013°00'7 9.4
2015-May-13 22:33N 38°40' E 012°54'10 9.4
2015-May-13 21:32N 38°47' E 012°46'10 9.8
2015-May-13 20:32N 38°54' E 012°37'68 9.5
2015-May-13 13:26N 39°42' E 011°36'67 9.4
2015-May-13 06:15N 40°31' E 010°35'166 8.9
2015-May-12 11:33N 41°55' E 007°24'135 8.9
2015-May-11 20:27N 43°17' E 004°59'7 8.3
2015-May-11 19:33N 43°24' E 004°54'12 5.4
2015-May-11 17:23N 43°32' E 004°43'  
Track history (hours):
 
Tides and Currents Weather Stations Pressure Air Temp Water Temp Dewpoint Dewpoint Depression Visibility Wind Speed Wind Dir Waves Ship Positions

Rorichmoor

Last reported at 2015-May-19 17:33 UTC. Time now 2015-May-27 23:54 UTC.
Position N 43°20' E 004°58'.
Warning: this ship's position is 8 days out of date.

Length 80 m; draft 3 m.

Type: Cargo ship. MMSI: 304938000.

Date/timePositionNaut miles runAvg speedWind from/ knotsBaromVisibWave heightAir tempDewpointWater temp
2015-May-19 17:33N 43°20' E 004°58'5 0.2
2015-May-18 20:33N 43°24' E 004°54'469 9.2
2015-May-16 17:27N 38°34' E 013°02'8 8.9
2015-May-16 16:32N 38°28' E 013°09'9 9.1
2015-May-16 15:33N 38°21' E 013°18'9 9.0
2015-May-16 14:34N 38°15' E 013°25'9 9.0
2015-May-16 13:33N 38°08' E 013°33'9 9.2
2015-May-16 12:33N 38°02' E 013°42'3 0.1
2015-May-14 22:18N 37°59' E 013°43'0 0.0
2015-May-14 20:18N 37°59' E 013°43'0 0.0
2015-May-14 19:30N 37°59' E 013°43'0 0.0
2015-May-14 17:18N 37°59' E 013°43'0 0.0
2015-May-14 16:18N 37°59' E 013°43'0 0.0
2015-May-14 14:24N 37°59' E 013°43'0 0.0
2015-May-14 11:30N 37°59' E 013°43'0 0.0
2015-May-14 06:31N 37°59' E 013°43'2 2.5
2015-May-14 05:33N 38°02' E 013°42'6 4.5
2015-May-14 04:16N 38°06' E 013°37'4 5.3
2015-May-14 03:33N 38°08' E 013°33'7 6.6
2015-May-14 02:32N 38°13' E 013°27'8 8.6
2015-May-14 01:33N 38°19' E 013°20'10 9.8
2015-May-14 00:33N 38°26' E 013°11'12 9.5
2015-May-13 23:15N 38°35' E 013°00'7 9.4
2015-May-13 22:33N 38°40' E 012°54'10 9.4
2015-May-13 21:32N 38°47' E 012°46'10 9.8
2015-May-13 20:32N 38°54' E 012°37'68 9.5
2015-May-13 13:26N 39°42' E 011°36'67 9.4
2015-May-13 06:15N 40°31' E 010°35'166 8.9
2015-May-12 11:33N 41°55' E 007°24'135 8.9
2015-May-11 20:27N 43°17' E 004°59'7 8.3
2015-May-11 19:33N 43°24' E 004°54'12 5.4
2015-May-11 17:23N 43°32' E 004°43'  

Dump ship's entire track history